Wednesday, September 19, 2018, 3:11 PM EDT
Back to Local

KDKK, Chautauqua County/dunkirk

Location: Dunkirk, NY, United States Lat: 42.5
Local Time: 3:11 PM EDT (19:11 GMT) Lon: -79.283
Time Zone: US/Eastern Elev: 692 ft

Show me the last for .
Show Decoded

2018-09-19 14:53 METAR KDKK 191853Z AUTO 35008KT 10SM CLR 21/15 A3006 RMK AO2 SLP176 T02110150 $
                 =
2018-09-19 13:53 METAR KDKK 191753Z AUTO 32006KT 10SM CLR 21/15 A3007 RMK AO2 SLP179 T02110150
                 10217 20178 50006 $ =
2018-09-19 12:53 METAR KDKK 191653Z AUTO 36008KT 10SM CLR 21/16 A3007 RMK AO2 PRESRR SLP180
                 T02110156 $ =
2018-09-19 11:53 METAR KDKK 191553Z AUTO 34009KT 10SM FEW019 SCT025 21/16 A3005 RMK AO2 SLP175
                 T02060156 $ =
2018-09-19 11:26 METAR KDKK 191526Z AUTO 34004KT 10SM FEW020 SCT027 20/16 A3005 RMK AO2 T02000156
                 =
2018-09-19 10:53 METAR KDKK 191453Z AUTO 36004KT 10SM FEW016 SCT023 BKN028 20/16 A3005 RMK AO2
                 SLP172 T02000156 51004 =
2018-09-19 10:02 METAR KDKK 191402Z AUTO 35007KT 10SM SCT016 BKN027 19/16 A3005 RMK AO2 T01940156
                 =
2018-09-19 09:53 METAR KDKK 191353Z AUTO 35006KT 10SM FEW018 SCT027 19/16 A3005 RMK AO2 SLP173
                 T01940156 =
2018-09-19 09:31 METAR KDKK 191331Z AUTO 36006KT 10SM SCT027 19/16 A3004 RMK AO2 T01940156 =
2018-09-19 08:53 METAR KDKK 191253Z AUTO 02004KT 10SM SCT020 OVC024 18/16 A3004 RMK AO2 SLP169
                 T01830156 =
2018-09-19 08:01 METAR KDKK 191201Z AUTO 02004KT 10SM BKN015 OVC020 18/16 A3002 RMK AO2 T01780156
                 =
2018-09-19 07:53 METAR KDKK 191153Z AUTO 01005KT 10SM OVC013 18/16 A3002 RMK AO2 SLP162 60000
                 T01780156 10183 20172 53020 =
2018-09-19 06:53 METAR KDKK 191053Z AUTO 01005KT 10SM OVC013 18/16 A2999 RMK AO2 SLP152 T01780156
                 $ =
2018-09-19 06:11 METAR KDKK 191011Z AUTO 02004KT 10SM BKN013 OVC018 18/16 A2997 RMK AO2 T01780161
                 $ =
2018-09-19 05:53 METAR KDKK 190953Z AUTO 04004KT 10SM OVC017 18/16 A2996 RMK AO2 RAB08E22 SLP142
                 P0000 T01780161 $ =
2018-09-19 05:24 METAR KDKK 190924Z AUTO 04005KT 10SM OVC015 18/16 A2995 RMK AO2 RAB08E22 P0000
                 T01780161 $ =
2018-09-19 04:53 METAR KDKK 190853Z AUTO 36003KT 10SM OVC014 18/16 A2996 RMK AO2 SLP140 T01780161
                 53008 $ =
2018-09-19 03:53 METAR KDKK 190753Z AUTO 03004KT 10SM BKN014 OVC120 18/16 A2994 RMK AO2 SLP134
                 T01780161 $ =
2018-09-19 02:53 METAR KDKK 190653Z AUTO 02006KT 10SM OVC013 18/16 A2994 RMK AO2 SLP137 T01780161
                 $ =
2018-09-19 02:36 METAR KDKK 190636Z AUTO 35005KT 10SM BKN013 OVC022 18/16 A2995 RMK AO2 T01780161
                 $ =
2018-09-19 01:53 METAR KDKK 190553Z AUTO 02008KT 10SM FEW013 OVC021 18/16 A2993 RMK AO2 SLP132
                 T01830161 10211 20183 51007 $ =
2018-09-19 00:53 METAR KDKK 190453Z AUTO 01003KT 10SM OVC015 19/17 A2992 RMK AO2 SLP129 T01890172
                 402440161 $ =
2018-09-19 00:37 METAR KDKK 190437Z AUTO 00000KT 10SM BKN015 18/17 A2992 RMK AO2 T01830167 $ =
2018-09-18 23:53 METAR KDKK 190353Z AUTO 01005KT 10SM SCT036 19/18 A2992 RMK AO2 SLP129 T01940178
                 $ =
2018-09-18 22:53 METAR KDKK 190253Z AUTO 24005KT 8SM FEW006 SCT012 SCT041 21/20 A2991 RMK AO2
                 SLP125 T02060200 51006 $ =
2018-09-18 22:22 METAR KDKK 190222Z AUTO 23006KT 7SM BKN006 BKN012 21/20 A2992 RMK AO2 T02110200
                 $ =
2018-09-18 22:15 METAR KDKK 190215Z AUTO 24006KT 7SM SCT006 BKN012 OVC038 21/20 A2991 RMK AO2
                 T02110200 $ =
2018-09-18 22:05 METAR KDKK 190205Z AUTO 21005KT 8SM BKN008 BKN012 OVC039 21/20 A2991 RMK AO2 CIG
                 006V010 T02060200 $ =
2018-09-18 21:53 METAR KDKK 190153Z AUTO 23006KT 8SM SCT008 BKN037 21/20 A2991 RMK AO2 SLP126
                 T02060200 $ =
2018-09-18 20:53 METAR KDKK 190053Z AUTO 21005KT 6SM BR SCT007 21/20 A2989 RMK AO2 SLP119
                 T02060200 $ =
2018-09-18 20:09 METAR KDKK 190009Z AUTO 6SM BR FEW006 21/20 A2989 RMK AO2 T02110200 $ =
2018-09-18 19:53 METAR KDKK 182353Z AUTO 22008KT 7SM BKN006 21/21 A2988 RMK AO2 SLP117 T02110206
                 10244 20211 51006 $ =
2018-09-18 19:44 METAR KDKK 182344Z AUTO 22006KT 7SM BKN006 21/21 A2988 RMK AO2 T02110206 $ =
2018-09-18 19:32 METAR KDKK 182332Z AUTO 24007KT 6SM BR SCT006 21/21 A2988 RMK AO2 T02110206 $ =
2018-09-18 18:53 METAR KDKK 182253Z AUTO 24009KT 6SM BR CLR 22/20 A2988 RMK AO2 SLP116 T02170200
                 $ =
2018-09-18 17:53 METAR KDKK 182153Z AUTO 23006KT 8SM CLR 23/21 A2987 RMK AO2 SLP111 T02330206 $ =
2018-09-18 16:53 METAR KDKK 182053Z AUTO 23011KT 8SM CLR 24/21 A2987 RMK AO2 SLP111 T02390206
                 55007 $ =
2018-09-18 16:23 METAR KDKK 182023Z AUTO 24012KT 9SM SCT012 24/21 A2987 RMK AO2 T02390206 $ =
2018-09-18 15:53 METAR KDKK 181953Z AUTO 24010KT 9SM BKN012 24/21 A2987 RMK AO2 SLP111 T02390211
                 $ =
2018-09-18 15:46 METAR KDKK 181946Z AUTO 24010KT 10SM SCT012 24/21 A2986 RMK AO2 T02390211 $ =
2018-09-18 15:38 METAR KDKK 181938Z AUTO 23012KT 9SM BKN012 24/21 A2986 RMK AO2 T02440211 $ =
2018-09-18 15:29 METAR KDKK 181929Z AUTO 25009KT 10SM SCT012 24/21 A2987 RMK AO2 T02390211 $ =

Support USWX by starting your Amazon purchase here.